<?xml version="1.0" encoding="UTF-8" standalone="no" ?>
<gpx xmlns="http://www.topografix.com/GPX/1/1" xmlns:xsi="http://www.w3.org/2001/XMLSchema-instance" xsi:schemaLocation="http://www.topografix.com/GPX/1/1 http://www.topografix.com/GPX/1/1/gpx.xsd" version="1.1" creator="VisuGPX - https://www.visugpx.com">
  <metadata>
    <name>Payolle - Col de la Crabe</name>
    <desc><![CDATA[Boucle depuis la Station de ski de fond de Payolle en passant par le col de la Crabe]]></desc>
  </metadata>
  <trk>
    <name><![CDATA[Payolle - Boucle Col de la Crabe]]></name>
    <trkseg>
      <trkpt lat="42.93579" lon="0.29001">
        <ele>1137</ele>
        <time>2015-01-16T09:58:02+01:00</time>
      </trkpt>
      <trkpt lat="42.93526" lon="0.29109">
        <ele>1137</ele>
        <time>2015-01-16T09:58:07+01:00</time>
      </trkpt>
      <trkpt lat="42.93476" lon="0.29113">
        <ele>1142</ele>
        <time>2015-01-16T09:58:12+01:00</time>
      </trkpt>
      <trkpt lat="42.93369" lon="0.29194">
        <ele>1144</ele>
        <time>2015-01-16T09:58:17+01:00</time>
      </trkpt>
      <trkpt lat="42.93316" lon="0.29255">
        <ele>1150</ele>
        <time>2015-01-16T09:58:22+01:00</time>
      </trkpt>
      <trkpt lat="42.93215" lon="0.29272">
        <ele>1159</ele>
        <time>2015-01-16T09:58:27+01:00</time>
      </trkpt>
      <trkpt lat="42.93124" lon="0.29276">
        <ele>1171</ele>
        <time>2015-01-16T09:58:32+01:00</time>
      </trkpt>
      <trkpt lat="42.93045" lon="0.29229">
        <ele>1177</ele>
        <time>2015-01-16T09:58:37+01:00</time>
      </trkpt>
      <trkpt lat="42.93023" lon="0.2916">
        <ele>1180</ele>
        <time>2015-01-16T09:58:42+01:00</time>
      </trkpt>
      <trkpt lat="42.92964" lon="0.29156">
        <ele>1189</ele>
        <time>2015-01-16T09:58:47+01:00</time>
      </trkpt>
      <trkpt lat="42.92854" lon="0.29186">
        <ele>1204</ele>
        <time>2015-01-16T09:58:52+01:00</time>
      </trkpt>
      <trkpt lat="42.92772" lon="0.29113">
        <ele>1217</ele>
        <time>2015-01-16T09:58:57+01:00</time>
      </trkpt>
      <trkpt lat="42.92678" lon="0.29096">
        <ele>1231</ele>
        <time>2015-01-16T09:59:02+01:00</time>
      </trkpt>
      <trkpt lat="42.92624" lon="0.29044">
        <ele>1239</ele>
        <time>2015-01-16T09:59:07+01:00</time>
      </trkpt>
      <trkpt lat="42.92577" lon="0.29044">
        <ele>1247</ele>
        <time>2015-01-16T09:59:12+01:00</time>
      </trkpt>
      <trkpt lat="42.92514" lon="0.29027">
        <ele>1260</ele>
        <time>2015-01-16T09:59:17+01:00</time>
      </trkpt>
      <trkpt lat="42.92354" lon="0.28924">
        <ele>1296</ele>
        <time>2015-01-16T09:59:22+01:00</time>
      </trkpt>
      <trkpt lat="42.92191" lon="0.28795">
        <ele>1318</ele>
        <time>2015-01-16T09:59:27+01:00</time>
      </trkpt>
      <trkpt lat="42.92052" lon="0.28692">
        <ele>1323</ele>
        <time>2015-01-16T09:59:32+01:00</time>
      </trkpt>
      <trkpt lat="42.91861" lon="0.28606">
        <ele>1333</ele>
        <time>2015-01-16T09:59:37+01:00</time>
      </trkpt>
      <trkpt lat="42.9176" lon="0.28602">
        <ele>1351</ele>
        <time>2015-01-16T09:59:42+01:00</time>
      </trkpt>
      <trkpt lat="42.9165" lon="0.28654">
        <ele>1359</ele>
        <time>2015-01-16T09:59:47+01:00</time>
      </trkpt>
      <trkpt lat="42.91524" lon="0.28645">
        <ele>1364</ele>
        <time>2015-01-16T09:59:52+01:00</time>
      </trkpt>
      <trkpt lat="42.91405" lon="0.28589">
        <ele>1371</ele>
        <time>2015-01-16T09:59:57+01:00</time>
      </trkpt>
      <trkpt lat="42.91298" lon="0.28512">
        <ele>1373</ele>
        <time>2015-01-16T10:00:02+01:00</time>
      </trkpt>
      <trkpt lat="42.91015" lon="0.28285">
        <ele>1401</ele>
        <time>2015-01-16T10:00:07+01:00</time>
      </trkpt>
      <trkpt lat="42.90845" lon="0.28083">
        <ele>1433</ele>
        <time>2015-01-16T10:00:12+01:00</time>
      </trkpt>
      <trkpt lat="42.90827" lon="0.27946">
        <ele>1440</ele>
        <time>2015-01-16T10:00:17+01:00</time>
      </trkpt>
      <trkpt lat="42.90789" lon="0.27838">
        <ele>1452</ele>
        <time>2015-01-16T10:00:22+01:00</time>
      </trkpt>
      <trkpt lat="42.90688" lon="0.27671">
        <ele>1493</ele>
        <time>2015-01-16T10:00:27+01:00</time>
      </trkpt>
      <trkpt lat="42.90607" lon="0.27525">
        <ele>1534</ele>
        <time>2015-01-16T10:00:32+01:00</time>
      </trkpt>
      <trkpt lat="42.90509" lon="0.27332">
        <ele>1589</ele>
        <time>2015-01-16T10:00:37+01:00</time>
      </trkpt>
      <trkpt lat="42.90418" lon="0.26967">
        <ele>1651</ele>
        <time>2015-01-16T10:00:42+01:00</time>
      </trkpt>
      <trkpt lat="42.90393" lon="0.26723">
        <ele>1669</ele>
        <time>2015-01-16T10:00:47+01:00</time>
      </trkpt>
      <trkpt lat="42.90383" lon="0.26452">
        <ele>1700</ele>
        <time>2015-01-16T10:00:52+01:00</time>
      </trkpt>
      <trkpt lat="42.90393" lon="0.26195">
        <ele>1768</ele>
        <time>2015-01-16T10:00:57+01:00</time>
      </trkpt>
      <trkpt lat="42.90446" lon="0.26002">
        <ele>1823</ele>
        <time>2015-01-16T10:01:02+01:00</time>
      </trkpt>
      <trkpt lat="42.90528" lon="0.25834">
        <ele>1866</ele>
        <time>2015-01-16T10:01:07+01:00</time>
      </trkpt>
      <trkpt lat="42.9061" lon="0.25675">
        <ele>1882</ele>
        <time>2015-01-16T10:01:12+01:00</time>
      </trkpt>
      <trkpt lat="42.90676" lon="0.25495">
        <ele>1813</ele>
        <time>2015-01-16T10:01:17+01:00</time>
      </trkpt>
      <trkpt lat="42.90748" lon="0.25358">
        <ele>1746</ele>
        <time>2015-01-16T10:01:22+01:00</time>
      </trkpt>
      <trkpt lat="42.9083" lon="0.25233">
        <ele>1682</ele>
        <time>2015-01-16T10:01:27+01:00</time>
      </trkpt>
      <trkpt lat="42.90911" lon="0.25057">
        <ele>1618</ele>
        <time>2015-01-16T10:01:32+01:00</time>
      </trkpt>
      <trkpt lat="42.91025" lon="0.25045">
        <ele>1565</ele>
        <time>2015-01-16T10:01:37+01:00</time>
      </trkpt>
      <trkpt lat="42.91059" lon="0.25092">
        <ele>1559</ele>
        <time>2015-01-16T10:01:42+01:00</time>
      </trkpt>
      <trkpt lat="42.91166" lon="0.25027">
        <ele>1513</ele>
        <time>2015-01-16T10:01:47+01:00</time>
      </trkpt>
      <trkpt lat="42.91226" lon="0.2501">
        <ele>1498</ele>
        <time>2015-01-16T10:01:52+01:00</time>
      </trkpt>
      <trkpt lat="42.9127" lon="0.25045">
        <ele>1491</ele>
        <time>2015-01-16T10:01:57+01:00</time>
      </trkpt>
      <trkpt lat="42.91336" lon="0.25032">
        <ele>1480</ele>
        <time>2015-01-16T10:02:02+01:00</time>
      </trkpt>
      <trkpt lat="42.91505" lon="0.25083">
        <ele>1467</ele>
        <time>2015-01-16T10:02:07+01:00</time>
      </trkpt>
      <trkpt lat="42.91842" lon="0.24924">
        <ele>1420</ele>
        <time>2015-01-16T10:02:12+01:00</time>
      </trkpt>
      <trkpt lat="42.92027" lon="0.24864">
        <ele>1399</ele>
        <time>2015-01-16T10:02:17+01:00</time>
      </trkpt>
      <trkpt lat="42.92137" lon="0.24796">
        <ele>1386</ele>
        <time>2015-01-16T10:02:22+01:00</time>
      </trkpt>
      <trkpt lat="42.92313" lon="0.24761">
        <ele>1365</ele>
        <time>2015-01-16T10:02:27+01:00</time>
      </trkpt>
      <trkpt lat="42.92464" lon="0.2474">
        <ele>1339</ele>
        <time>2015-01-16T10:02:32+01:00</time>
      </trkpt>
      <trkpt lat="42.9264" lon="0.24736">
        <ele>1327</ele>
        <time>2015-01-16T10:02:37+01:00</time>
      </trkpt>
      <trkpt lat="42.9281" lon="0.24839">
        <ele>1318</ele>
        <time>2015-01-16T10:02:42+01:00</time>
      </trkpt>
      <trkpt lat="42.92932" lon="0.24963">
        <ele>1313</ele>
        <time>2015-01-16T10:02:47+01:00</time>
      </trkpt>
      <trkpt lat="42.93067" lon="0.25122">
        <ele>1296</ele>
        <time>2015-01-16T10:02:52+01:00</time>
      </trkpt>
      <trkpt lat="42.93118" lon="0.25255">
        <ele>1295</ele>
        <time>2015-01-16T10:02:57+01:00</time>
      </trkpt>
      <trkpt lat="42.93221" lon="0.25315">
        <ele>1281</ele>
        <time>2015-01-16T10:03:02+01:00</time>
      </trkpt>
      <trkpt lat="42.93294" lon="0.25328">
        <ele>1275</ele>
        <time>2015-01-16T10:03:07+01:00</time>
      </trkpt>
      <trkpt lat="42.93353" lon="0.25405">
        <ele>1274</ele>
        <time>2015-01-16T10:03:12+01:00</time>
      </trkpt>
      <trkpt lat="42.93507" lon="0.25418">
        <ele>1265</ele>
        <time>2015-01-16T10:03:17+01:00</time>
      </trkpt>
      <trkpt lat="42.93633" lon="0.25461">
        <ele>1260</ele>
        <time>2015-01-16T10:03:22+01:00</time>
      </trkpt>
      <trkpt lat="42.93715" lon="0.25504">
        <ele>1254</ele>
        <time>2015-01-16T10:03:27+01:00</time>
      </trkpt>
      <trkpt lat="42.93774" lon="0.25594">
        <ele>1250</ele>
        <time>2015-01-16T10:03:32+01:00</time>
      </trkpt>
      <trkpt lat="42.93796" lon="0.25684">
        <ele>1249</ele>
        <time>2015-01-16T10:03:37+01:00</time>
      </trkpt>
      <trkpt lat="42.93856" lon="0.25744">
        <ele>1245</ele>
        <time>2015-01-16T10:03:42+01:00</time>
      </trkpt>
      <trkpt lat="42.9384" lon="0.258">
        <ele>1251</ele>
        <time>2015-01-16T10:03:47+01:00</time>
      </trkpt>
      <trkpt lat="42.93894" lon="0.25924">
        <ele>1241</ele>
        <time>2015-01-16T10:03:52+01:00</time>
      </trkpt>
      <trkpt lat="42.93897" lon="0.26019">
        <ele>1243</ele>
        <time>2015-01-16T10:03:57+01:00</time>
      </trkpt>
      <trkpt lat="42.939" lon="0.26135">
        <ele>1240</ele>
        <time>2015-01-16T10:04:02+01:00</time>
      </trkpt>
      <trkpt lat="42.93834" lon="0.26242">
        <ele>1250</ele>
        <time>2015-01-16T10:04:07+01:00</time>
      </trkpt>
      <trkpt lat="42.93815" lon="0.26469">
        <ele>1237</ele>
        <time>2015-01-16T10:04:12+01:00</time>
      </trkpt>
      <trkpt lat="42.93793" lon="0.26624">
        <ele>1210</ele>
        <time>2015-01-16T10:04:17+01:00</time>
      </trkpt>
      <trkpt lat="42.93737" lon="0.26701">
        <ele>1181</ele>
        <time>2015-01-16T10:04:22+01:00</time>
      </trkpt>
      <trkpt lat="42.93683" lon="0.26924">
        <ele>1168</ele>
        <time>2015-01-16T10:04:27+01:00</time>
      </trkpt>
      <trkpt lat="42.93752" lon="0.27139">
        <ele>1168</ele>
        <time>2015-01-16T10:04:32+01:00</time>
      </trkpt>
      <trkpt lat="42.93837" lon="0.27229">
        <ele>1170</ele>
        <time>2015-01-16T10:04:37+01:00</time>
      </trkpt>
      <trkpt lat="42.94004" lon="0.27285">
        <ele>1149</ele>
        <time>2015-01-16T10:04:42+01:00</time>
      </trkpt>
      <trkpt lat="42.94073" lon="0.27349">
        <ele>1139</ele>
        <time>2015-01-16T10:04:47+01:00</time>
      </trkpt>
      <trkpt lat="42.94095" lon="0.27641">
        <ele>1118</ele>
        <time>2015-01-16T10:04:52+01:00</time>
      </trkpt>
      <trkpt lat="42.94139" lon="0.27851">
        <ele>1108</ele>
        <time>2015-01-16T10:04:57+01:00</time>
      </trkpt>
      <trkpt lat="42.94214" lon="0.27903">
        <ele>1098</ele>
        <time>2015-01-16T10:05:02+01:00</time>
      </trkpt>
      <trkpt lat="42.94239" lon="0.28036">
        <ele>1097</ele>
        <time>2015-01-16T10:05:07+01:00</time>
      </trkpt>
      <trkpt lat="42.94117" lon="0.28122">
        <ele>1106</ele>
        <time>2015-01-16T10:05:12+01:00</time>
      </trkpt>
      <trkpt lat="42.93953" lon="0.28375">
        <ele>1110</ele>
        <time>2015-01-16T10:05:17+01:00</time>
      </trkpt>
      <trkpt lat="42.93614" lon="0.2892">
        <ele>1134</ele>
        <time>2015-01-16T10:05:22+01:00</time>
      </trkpt>
    </trkseg>
  </trk>
</gpx>